sensor_id;sensor_type;location;lat;lon;timestamp;temperature;humidity
4081;DHT22;2055;50.074;8.436;2023-07-31T00:00:05;16.90;99.90
4081;DHT22;2055;50.074;8.436;2023-07-31T00:02:31;16.90;99.90
4081;DHT22;2055;50.074;8.436;2023-07-31T00:04:57;16.80;99.90
4081;DHT22;2055;50.074;8.436;2023-07-31T00:07:22;16.80;99.90
4081;DHT22;2055;50.074;8.436;2023-07-31T00:09:48;16.50;99.90
4081;DHT22;2055;50.074;8.436;2023-07-31T00:12:13;16.70;99.90
4081;DHT22;2055;50.074;8.436;2023-07-31T00:14:39;16.60;99.90
4081;DHT22;2055;50.074;8.436;2023-07-31T00:17:05;16.70;99.90
4081;DHT22;2055;50.074;8.436;2023-07-31T00:19:30;16.70;99.90
4081;DHT22;2055;50.074;8.436;2023-07-31T00:21:56;16.20;99.90
4081;DHT22;2055;50.074;8.436;2023-07-31T00:24:21;17.10;99.90
4081;DHT22;2055;50.074;8.436;2023-07-31T00:26:47;16.10;99.90
4081;DHT22;2055;50.074;8.436;2023-07-31T00:29:13;16.80;99.90
4081;DHT22;2055;50.074;8.436;2023-07-31T00:31:38;17.40;99.90
4081;DHT22;2055;50.074;8.436;2023-07-31T00:34:04;16.20;99.90
4081;DHT22;2055;50.074;8.436;2023-07-31T00:36:29;16.50;99.90
4081;DHT22;2055;50.074;8.436;2023-07-31T00:38:55;16.40;99.90
4081;DHT22;2055;50.074;8.436;2023-07-31T00:41:21;16.30;99.90
4081;DHT22;2055;50.074;8.436;2023-07-31T00:43:46;16.40;99.90
4081;DHT22;2055;50.074;8.436;2023-07-31T00:46:12;17.00;99.90
4081;DHT22;2055;50.074;8.436;2023-07-31T00:48:39;16.00;99.90
4081;DHT22;2055;50.074;8.436;2023-07-31T00:51:04;18.30;99.90
4081;DHT22;2055;50.074;8.436;2023-07-31T00:53:30;16.10;99.90
4081;DHT22;2055;50.074;8.436;2023-07-31T00:55:56;16.40;99.90
4081;DHT22;2055;50.074;8.436;2023-07-31T00:58:22;16.10;99.90
4081;DHT22;2055;50.074;8.436;2023-07-31T01:00:49;15.90;99.90
4081;DHT22;2055;50.074;8.436;2023-07-31T01:03:16;16.20;99.90
4081;DHT22;2055;50.074;8.436;2023-07-31T01:08:27;16.30;99.90
4081;DHT22;2055;50.074;8.436;2023-07-31T01:11:07;16.30;99.90
4081;DHT22;2055;50.074;8.436;2023-07-31T01:13:33;16.20;99.90
4081;DHT22;2055;50.074;8.436;2023-07-31T01:15:59;16.20;99.90
4081;DHT22;2055;50.074;8.436;2023-07-31T01:18:24;17.90;99.90
4081;DHT22;2055;50.074;8.436;2023-07-31T01:20:57;15.80;99.90
4081;DHT22;2055;50.074;8.436;2023-07-31T01:26:30;16.20;99.90
4081;DHT22;2055;50.074;8.436;2023-07-31T01:29:10;16.10;99.90
4081;DHT22;2055;50.074;8.436;2023-07-31T01:31:37;18.40;99.90
4081;DHT22;2055;50.074;8.436;2023-07-31T01:34:04;16.30;99.90
4081;DHT22;2055;50.074;8.436;2023-07-31T01:36:30;15.40;99.90
4081;DHT22;2055;50.074;8.436;2023-07-31T01:39:00;18.30;99.90
4081;DHT22;2055;50.074;8.436;2023-07-31T01:41:26;16.00;99.90
4081;DHT22;2055;50.074;8.436;2023-07-31T01:43:51;16.40;99.90
4081;DHT22;2055;50.074;8.436;2023-07-31T01:46:17;16.40;99.90
4081;DHT22;2055;50.074;8.436;2023-07-31T01:48:43;16.60;99.90
4081;DHT22;2055;50.074;8.436;2023-07-31T01:51:08;16.50;99.90
4081;DHT22;2055;50.074;8.436;2023-07-31T01:53:34;16.30;99.90
4081;DHT22;2055;50.074;8.436;2023-07-31T01:55:59;16.60;99.90
4081;DHT22;2055;50.074;8.436;2023-07-31T01:58:25;16.50;99.90
4081;DHT22;2055;50.074;8.436;2023-07-31T02:00:50;16.50;99.90
4081;DHT22;2055;50.074;8.436;2023-07-31T02:03:16;17.00;99.90
4081;DHT22;2055;50.074;8.436;2023-07-31T02:05:48;16.50;99.90
4081;DHT22;2055;50.074;8.436;2023-07-31T02:08:15;16.60;99.90
4081;DHT22;2055;50.074;8.436;2023-07-31T02:10:41;17.20;99.90
4081;DHT22;2055;50.074;8.436;2023-07-31T02:13:06;16.80;99.90
4081;DHT22;2055;50.074;8.436;2023-07-31T02:15:32;18.30;99.90
4081;DHT22;2055;50.074;8.436;2023-07-31T02:17:58;17.00;99.90
4081;DHT22;2055;50.074;8.436;2023-07-31T02:20:23;16.90;99.90
4081;DHT22;2055;50.074;8.436;2023-07-31T02:22:49;18.00;99.90
4081;DHT22;2055;50.074;8.436;2023-07-31T02:25:15;18.30;99.90
4081;DHT22;2055;50.074;8.436;2023-07-31T02:27:43;17.20;99.90
4081;DHT22;2055;50.074;8.436;2023-07-31T02:30:09;17.10;99.90
4081;DHT22;2055;50.074;8.436;2023-07-31T02:32:35;17.10;99.90
4081;DHT22;2055;50.074;8.436;2023-07-31T02:35:00;16.90;99.90
4081;DHT22;2055;50.074;8.436;2023-07-31T02:37:26;18.80;99.90
4081;DHT22;2055;50.074;8.436;2023-07-31T02:39:54;18.80;99.90
4081;DHT22;2055;50.074;8.436;2023-07-31T02:42:19;17.00;99.90
4081;DHT22;2055;50.074;8.436;2023-07-31T02:44:45;17.50;99.90
4081;DHT22;2055;50.074;8.436;2023-07-31T02:47:10;17.10;99.90
4081;DHT22;2055;50.074;8.436;2023-07-31T02:49:36;16.90;99.90
4081;DHT22;2055;50.074;8.436;2023-07-31T02:52:01;16.60;99.90
4081;DHT22;2055;50.074;8.436;2023-07-31T02:54:27;17.10;99.90
4081;DHT22;2055;50.074;8.436;2023-07-31T02:56:52;16.90;99.90
4081;DHT22;2055;50.074;8.436;2023-07-31T02:59:18;17.40;99.90
4081;DHT22;2055;50.074;8.436;2023-07-31T03:01:44;17.40;99.90
4081;DHT22;2055;50.074;8.436;2023-07-31T03:04:09;17.10;99.90
4081;DHT22;2055;50.074;8.436;2023-07-31T03:06:35;20.00;99.90
4081;DHT22;2055;50.074;8.436;2023-07-31T03:09:00;17.10;99.90
4081;DHT22;2055;50.074;8.436;2023-07-31T03:11:26;16.80;99.90
4081;DHT22;2055;50.074;8.436;2023-07-31T03:13:51;17.10;99.90
4081;DHT22;2055;50.074;8.436;2023-07-31T03:16:17;17.10;99.90
4081;DHT22;2055;50.074;8.436;2023-07-31T03:18:43;16.80;99.90
4081;DHT22;2055;50.074;8.436;2023-07-31T03:21:08;16.80;99.90
4081;DHT22;2055;50.074;8.436;2023-07-31T03:23:34;17.10;99.90
4081;DHT22;2055;50.074;8.436;2023-07-31T03:26:02;17.10;99.90
4081;DHT22;2055;50.074;8.436;2023-07-31T03:28:29;17.10;99.90
4081;DHT22;2055;50.074;8.436;2023-07-31T03:30:55;17.10;99.90
4081;DHT22;2055;50.074;8.436;2023-07-31T03:33:21;17.10;99.90
4081;DHT22;2055;50.074;8.436;2023-07-31T03:35:46;16.50;99.90
4081;DHT22;2055;50.074;8.436;2023-07-31T03:38:12;17.10;99.90
4081;DHT22;2055;50.074;8.436;2023-07-31T03:40:38;17.90;99.90
4081;DHT22;2055;50.074;8.436;2023-07-31T03:43:04;16.90;99.90
4081;DHT22;2055;50.074;8.436;2023-07-31T03:45:30;17.30;99.90
4081;DHT22;2055;50.074;8.436;2023-07-31T03:47:55;17.60;99.90
4081;DHT22;2055;50.074;8.436;2023-07-31T03:50:21;17.20;99.90
4081;DHT22;2055;50.074;8.436;2023-07-31T03:52:47;16.90;99.90
4081;DHT22;2055;50.074;8.436;2023-07-31T03:55:12;17.00;99.90
4081;DHT22;2055;50.074;8.436;2023-07-31T03:57:38;17.40;99.90
4081;DHT22;2055;50.074;8.436;2023-07-31T04:00:04;17.10;99.90
4081;DHT22;2055;50.074;8.436;2023-07-31T04:02:30;17.10;99.90
4081;DHT22;2055;50.074;8.436;2023-07-31T04:04:55;17.60;99.90
4081;DHT22;2055;50.074;8.436;2023-07-31T04:07:21;17.10;99.90
4081;DHT22;2055;50.074;8.436;2023-07-31T04:09:46;17.20;99.90
4081;DHT22;2055;50.074;8.436;2023-07-31T04:12:12;17.20;99.90
4081;DHT22;2055;50.074;8.436;2023-07-31T04:14:37;17.20;99.90
4081;DHT22;2055;50.074;8.436;2023-07-31T04:17:03;17.20;99.90
4081;DHT22;2055;50.074;8.436;2023-07-31T04:19:29;17.30;99.90
4081;DHT22;2055;50.074;8.436;2023-07-31T04:21:54;17.30;99.90
4081;DHT22;2055;50.074;8.436;2023-07-31T04:24:20;17.90;99.90
4081;DHT22;2055;50.074;8.436;2023-07-31T04:26:50;16.90;99.90
4081;DHT22;2055;50.074;8.436;2023-07-31T04:29:16;17.40;99.90
4081;DHT22;2055;50.074;8.436;2023-07-31T04:31:41;17.40;99.90
4081;DHT22;2055;50.074;8.436;2023-07-31T04:34:07;17.10;99.90
4081;DHT22;2055;50.074;8.436;2023-07-31T04:36:33;17.70;99.90
4081;DHT22;2055;50.074;8.436;2023-07-31T04:38:59;17.40;99.90
4081;DHT22;2055;50.074;8.436;2023-07-31T04:41:25;17.30;99.90
4081;DHT22;2055;50.074;8.436;2023-07-31T04:43:50;17.20;99.90
4081;DHT22;2055;50.074;8.436;2023-07-31T04:46:16;17.40;99.90
4081;DHT22;2055;50.074;8.436;2023-07-31T04:48:42;17.10;99.90
4081;DHT22;2055;50.074;8.436;2023-07-31T04:51:08;17.10;99.90
4081;DHT22;2055;50.074;8.436;2023-07-31T04:53:35;17.00;99.90
4081;DHT22;2055;50.074;8.436;2023-07-31T04:56:00;17.10;99.90
4081;DHT22;2055;50.074;8.436;2023-07-31T04:58:26;17.10;99.90
4081;DHT22;2055;50.074;8.436;2023-07-31T05:00:52;17.20;99.90
4081;DHT22;2055;50.074;8.436;2023-07-31T05:03:17;17.20;99.90
4081;DHT22;2055;50.074;8.436;2023-07-31T05:05:43;17.10;99.90
4081;DHT22;2055;50.074;8.436;2023-07-31T05:08:08;17.10;99.90
4081;DHT22;2055;50.074;8.436;2023-07-31T05:10:34;17.20;99.90
4081;DHT22;2055;50.074;8.436;2023-07-31T05:12:59;17.10;99.90
4081;DHT22;2055;50.074;8.436;2023-07-31T05:15:25;17.20;99.90
4081;DHT22;2055;50.074;8.436;2023-07-31T05:17:50;17.10;99.90
4081;DHT22;2055;50.074;8.436;2023-07-31T05:20:16;17.20;99.90
4081;DHT22;2055;50.074;8.436;2023-07-31T05:22:42;17.20;99.90
4081;DHT22;2055;50.074;8.436;2023-07-31T05:25:07;17.20;99.90
4081;DHT22;2055;50.074;8.436;2023-07-31T05:27:33;17.20;99.90
4081;DHT22;2055;50.074;8.436;2023-07-31T05:29:59;17.10;99.90
4081;DHT22;2055;50.074;8.436;2023-07-31T05:32:24;17.20;99.90
4081;DHT22;2055;50.074;8.436;2023-07-31T05:34:53;17.20;99.90
4081;DHT22;2055;50.074;8.436;2023-07-31T05:37:19;19.40;99.90
4081;DHT22;2055;50.074;8.436;2023-07-31T05:39:45;17.30;99.90
4081;DHT22;2055;50.074;8.436;2023-07-31T05:42:10;17.60;99.90
4081;DHT22;2055;50.074;8.436;2023-07-31T05:44:36;17.20;99.90
4081;DHT22;2055;50.074;8.436;2023-07-31T05:47:02;17.30;99.90
4081;DHT22;2055;50.074;8.436;2023-07-31T05:49:28;17.30;99.90
4081;DHT22;2055;50.074;8.436;2023-07-31T05:51:53;17.40;99.90
4081;DHT22;2055;50.074;8.436;2023-07-31T05:54:19;17.20;99.90
4081;DHT22;2055;50.074;8.436;2023-07-31T05:56:44;19.80;99.90
4081;DHT22;2055;50.074;8.436;2023-07-31T05:59:12;18.70;99.90
4081;DHT22;2055;50.074;8.436;2023-07-31T06:01:38;18.00;99.90
4081;DHT22;2055;50.074;8.436;2023-07-31T06:04:04;17.60;99.90
4081;DHT22;2055;50.074;8.436;2023-07-31T06:06:30;18.20;99.90
4081;DHT22;2055;50.074;8.436;2023-07-31T06:08:56;17.70;99.90
4081;DHT22;2055;50.074;8.436;2023-07-31T06:11:22;17.60;99.90
4081;DHT22;2055;50.074;8.436;2023-07-31T06:13:47;17.50;99.90
4081;DHT22;2055;50.074;8.436;2023-07-31T06:16:14;18.40;99.90
4081;DHT22;2055;50.074;8.436;2023-07-31T06:18:41;20.30;99.90
4081;DHT22;2055;50.074;8.436;2023-07-31T06:21:07;18.80;99.90
4081;DHT22;2055;50.074;8.436;2023-07-31T06:23:33;18.60;99.90
4081;DHT22;2055;50.074;8.436;2023-07-31T06:25:58;20.30;99.90
4081;DHT22;2055;50.074;8.436;2023-07-31T06:28:28;18.50;99.90
4081;DHT22;2055;50.074;8.436;2023-07-31T06:30:57;18.20;99.90
4081;DHT22;2055;50.074;8.436;2023-07-31T06:33:23;18.30;99.90
4081;DHT22;2055;50.074;8.436;2023-07-31T06:35:49;18.30;99.90
4081;DHT22;2055;50.074;8.436;2023-07-31T06:38:14;18.30;99.90
4081;DHT22;2055;50.074;8.436;2023-07-31T06:40:40;18.20;99.90
4081;DHT22;2055;50.074;8.436;2023-07-31T06:43:07;18.30;99.90
4081;DHT22;2055;50.074;8.436;2023-07-31T06:45:36;18.10;99.90
4081;DHT22;2055;50.074;8.436;2023-07-31T06:48:02;18.00;99.90
4081;DHT22;2055;50.074;8.436;2023-07-31T06:50:32;18.10;99.90
4081;DHT22;2055;50.074;8.436;2023-07-31T06:52:57;18.10;99.90
4081;DHT22;2055;50.074;8.436;2023-07-31T06:55:24;18.20;99.90
4081;DHT22;2055;50.074;8.436;2023-07-31T06:57:51;18.10;99.90
4081;DHT22;2055;50.074;8.436;2023-07-31T07:00:17;18.40;99.90
4081;DHT22;2055;50.074;8.436;2023-07-31T07:02:43;18.40;99.90
4081;DHT22;2055;50.074;8.436;2023-07-31T07:05:09;18.30;99.90
4081;DHT22;2055;50.074;8.436;2023-07-31T07:07:36;18.50;99.90
4081;DHT22;2055;50.074;8.436;2023-07-31T07:10:01;18.70;99.90
4081;DHT22;2055;50.074;8.436;2023-07-31T07:12:32;18.70;99.90
4081;DHT22;2055;50.074;8.436;2023-07-31T07:14:58;18.70;99.90
4081;DHT22;2055;50.074;8.436;2023-07-31T07:17:25;18.90;99.90
4081;DHT22;2055;50.074;8.436;2023-07-31T07:19:50;19.20;99.90
4081;DHT22;2055;50.074;8.436;2023-07-31T07:22:16;19.20;99.90
4081;DHT22;2055;50.074;8.436;2023-07-31T07:24:41;19.60;99.90
4081;DHT22;2055;50.074;8.436;2023-07-31T07:27:10;19.90;99.90
4081;DHT22;2055;50.074;8.436;2023-07-31T07:29:35;21.90;99.90
4081;DHT22;2055;50.074;8.436;2023-07-31T07:32:01;20.80;99.90
4081;DHT22;2055;50.074;8.436;2023-07-31T07:34:28;21.90;99.90
4081;DHT22;2055;50.074;8.436;2023-07-31T07:36:54;20.10;99.90
4081;DHT22;2055;50.074;8.436;2023-07-31T07:39:20;20.20;99.90
4081;DHT22;2055;50.074;8.436;2023-07-31T07:41:46;20.40;99.90
4081;DHT22;2055;50.074;8.436;2023-07-31T07:44:12;19.80;99.90
4081;DHT22;2055;50.074;8.436;2023-07-31T07:46:38;20.00;99.90
4081;DHT22;2055;50.074;8.436;2023-07-31T07:49:04;19.80;99.90
4081;DHT22;2055;50.074;8.436;2023-07-31T07:51:33;20.60;99.90
4081;DHT22;2055;50.074;8.436;2023-07-31T07:53:59;19.60;99.90
4081;DHT22;2055;50.074;8.436;2023-07-31T07:56:28;20.60;99.90
4081;DHT22;2055;50.074;8.436;2023-07-31T07:58:54;20.70;99.90
4081;DHT22;2055;50.074;8.436;2023-07-31T08:01:20;20.60;99.90
4081;DHT22;2055;50.074;8.436;2023-07-31T08:03:47;21.70;99.90
4081;DHT22;2055;50.074;8.436;2023-07-31T08:06:13;20.20;99.90
4081;DHT22;2055;50.074;8.436;2023-07-31T08:08:39;20.10;99.90
4081;DHT22;2055;50.074;8.436;2023-07-31T08:11:05;20.10;99.90
4081;DHT22;2055;50.074;8.436;2023-07-31T08:13:31;20.00;99.90
4081;DHT22;2055;50.074;8.436;2023-07-31T08:15:56;19.80;99.90
4081;DHT22;2055;50.074;8.436;2023-07-31T08:18:22;19.80;99.90
4081;DHT22;2055;50.074;8.436;2023-07-31T08:20:48;19.90;99.90
4081;DHT22;2055;50.074;8.436;2023-07-31T08:23:13;20.50;99.90
4081;DHT22;2055;50.074;8.436;2023-07-31T08:25:39;19.80;99.90
4081;DHT22;2055;50.074;8.436;2023-07-31T08:28:05;22.80;99.90
4081;DHT22;2055;50.074;8.436;2023-07-31T08:30:31;20.60;99.90
4081;DHT22;2055;50.074;8.436;2023-07-31T08:32:57;20.50;99.90
4081;DHT22;2055;50.074;8.436;2023-07-31T08:35:24;20.60;99.90
4081;DHT22;2055;50.074;8.436;2023-07-31T08:37:50;20.60;99.90
4081;DHT22;2055;50.074;8.436;2023-07-31T08:40:16;20.50;99.90
4081;DHT22;2055;50.074;8.436;2023-07-31T08:42:45;20.50;99.90
4081;DHT22;2055;50.074;8.436;2023-07-31T08:45:18;21.10;99.90
4081;DHT22;2055;50.074;8.436;2023-07-31T08:47:49;20.90;99.90
4081;DHT22;2055;50.074;8.436;2023-07-31T08:50:20;20.80;99.90
4081;DHT22;2055;50.074;8.436;2023-07-31T08:52:47;20.60;99.90
4081;DHT22;2055;50.074;8.436;2023-07-31T08:55:13;20.50;99.90
4081;DHT22;2055;50.074;8.436;2023-07-31T08:57:39;20.50;99.90
4081;DHT22;2055;50.074;8.436;2023-07-31T09:00:07;20.60;99.90
4081;DHT22;2055;50.074;8.436;2023-07-31T09:02:38;20.80;99.90
4081;DHT22;2055;50.074;8.436;2023-07-31T09:05:07;21.80;99.90
4081;DHT22;2055;50.074;8.436;2023-07-31T09:07:34;20.80;99.90
4081;DHT22;2055;50.074;8.436;2023-07-31T09:10:00;20.90;99.90
4081;DHT22;2055;50.074;8.436;2023-07-31T09:12:26;21.70;99.90
4081;DHT22;2055;50.074;8.436;2023-07-31T09:14:51;21.10;99.90
4081;DHT22;2055;50.074;8.436;2023-07-31T09:17:32;22.40;99.90
4081;DHT22;2055;50.074;8.436;2023-07-31T09:22:38;21.50;99.90
4081;DHT22;2055;50.074;8.436;2023-07-31T09:25:20;21.30;99.90
4081;DHT22;2055;50.074;8.436;2023-07-31T09:28:00;21.70;99.90
4081;DHT22;2055;50.074;8.436;2023-07-31T09:30:26;21.80;99.90
4081;DHT22;2055;50.074;8.436;2023-07-31T09:33:04;21.40;99.90
4081;DHT22;2055;50.074;8.436;2023-07-31T09:35:33;21.20;99.90
4081;DHT22;2055;50.074;8.436;2023-07-31T09:38:04;21.10;99.90
4081;DHT22;2055;50.074;8.436;2023-07-31T09:40:35;20.70;99.90
4081;DHT22;2055;50.074;8.436;2023-07-31T09:43:03;20.50;99.90
4081;DHT22;2055;50.074;8.436;2023-07-31T09:45:38;20.50;99.90
4081;DHT22;2055;50.074;8.436;2023-07-31T09:48:13;20.40;99.90
4081;DHT22;2055;50.074;8.436;2023-07-31T09:50:40;20.50;99.90
4081;DHT22;2055;50.074;8.436;2023-07-31T09:53:07;20.70;99.90
4081;DHT22;2055;50.074;8.436;2023-07-31T09:55:33;20.90;99.90
4081;DHT22;2055;50.074;8.436;2023-07-31T09:58:00;21.00;99.90
4081;DHT22;2055;50.074;8.436;2023-07-31T10:00:29;21.10;99.90
4081;DHT22;2055;50.074;8.436;2023-07-31T10:02:58;21.10;99.90
4081;DHT22;2055;50.074;8.436;2023-07-31T10:05:30;21.30;99.90
4081;DHT22;2055;50.074;8.436;2023-07-31T10:07:57;21.50;99.90
4081;DHT22;2055;50.074;8.436;2023-07-31T10:10:23;21.40;99.90
4081;DHT22;2055;50.074;8.436;2023-07-31T10:12:49;21.50;99.90
4081;DHT22;2055;50.074;8.436;2023-07-31T10:15:16;21.40;99.90
4081;DHT22;2055;50.074;8.436;2023-07-31T10:17:42;21.30;99.90
4081;DHT22;2055;50.074;8.436;2023-07-31T10:20:08;21.30;99.90
4081;DHT22;2055;50.074;8.436;2023-07-31T10:22:34;21.50;99.90
4081;DHT22;2055;50.074;8.436;2023-07-31T10:25:00;21.20;99.90
4081;DHT22;2055;50.074;8.436;2023-07-31T10:27:26;21.30;99.90
4081;DHT22;2055;50.074;8.436;2023-07-31T10:29:54;21.40;99.90
4081;DHT22;2055;50.074;8.436;2023-07-31T10:32:20;21.60;99.90
4081;DHT22;2055;50.074;8.436;2023-07-31T10:34:48;21.70;99.90
4081;DHT22;2055;50.074;8.436;2023-07-31T10:37:30;21.90;99.90
4081;DHT22;2055;50.074;8.436;2023-07-31T10:40:00;21.90;99.90
4081;DHT22;2055;50.074;8.436;2023-07-31T10:42:34;21.90;99.90
4081;DHT22;2055;50.074;8.436;2023-07-31T10:45:08;22.00;99.90
4081;DHT22;2055;50.074;8.436;2023-07-31T10:47:42;22.00;99.90
4081;DHT22;2055;50.074;8.436;2023-07-31T10:50:18;22.20;99.90
4081;DHT22;2055;50.074;8.436;2023-07-31T10:52:51;22.10;99.90
4081;DHT22;2055;50.074;8.436;2023-07-31T10:58:13;22.30;99.90
4081;DHT22;2055;50.074;8.436;2023-07-31T11:00:43;22.00;99.90
4081;DHT22;2055;50.074;8.436;2023-07-31T11:08:24;22.60;99.90
4081;DHT22;2055;50.074;8.436;2023-07-31T11:11:13;22.90;99.90
4081;DHT22;2055;50.074;8.436;2023-07-31T11:13:45;22.50;99.90
4081;DHT22;2055;50.074;8.436;2023-07-31T11:16:12;22.40;99.90
4081;DHT22;2055;50.074;8.436;2023-07-31T11:18:43;22.30;99.90
4081;DHT22;2055;50.074;8.436;2023-07-31T11:21:16;22.00;99.90
4081;DHT22;2055;50.074;8.436;2023-07-31T11:23:46;22.00;99.90
4081;DHT22;2055;50.074;8.436;2023-07-31T11:26:12;22.00;99.90
4081;DHT22;2055;50.074;8.436;2023-07-31T11:28:37;22.10;99.90
4081;DHT22;2055;50.074;8.436;2023-07-31T11:31:04;22.00;99.90
4081;DHT22;2055;50.074;8.436;2023-07-31T11:33:30;22.10;99.90
4081;DHT22;2055;50.074;8.436;2023-07-31T11:35:56;22.10;99.90
4081;DHT22;2055;50.074;8.436;2023-07-31T11:38:29;22.20;99.90
4081;DHT22;2055;50.074;8.436;2023-07-31T11:40:58;22.30;99.90
4081;DHT22;2055;50.074;8.436;2023-07-31T11:43:25;22.40;99.90
4081;DHT22;2055;50.074;8.436;2023-07-31T11:45:53;22.60;99.90
4081;DHT22;2055;50.074;8.436;2023-07-31T11:48:28;22.40;99.90
4081;DHT22;2055;50.074;8.436;2023-07-31T11:50:57;22.50;99.90
4081;DHT22;2055;50.074;8.436;2023-07-31T11:53:47;22.50;99.90
4081;DHT22;2055;50.074;8.436;2023-07-31T11:56:18;22.40;99.90
4081;DHT22;2055;50.074;8.436;2023-07-31T11:58:45;22.30;99.90
4081;DHT22;2055;50.074;8.436;2023-07-31T12:01:11;22.20;99.90
4081;DHT22;2055;50.074;8.436;2023-07-31T12:03:38;22.10;99.90
4081;DHT22;2055;50.074;8.436;2023-07-31T12:06:03;22.10;99.90
4081;DHT22;2055;50.074;8.436;2023-07-31T12:08:29;22.00;99.90
4081;DHT22;2055;50.074;8.436;2023-07-31T12:11:02;22.00;99.90
4081;DHT22;2055;50.074;8.436;2023-07-31T12:13:31;21.90;99.90
4081;DHT22;2055;50.074;8.436;2023-07-31T12:15:58;21.80;99.90
4081;DHT22;2055;50.074;8.436;2023-07-31T12:18:27;21.70;99.90
4081;DHT22;2055;50.074;8.436;2023-07-31T12:21:00;21.70;99.90
4081;DHT22;2055;50.074;8.436;2023-07-31T12:23:28;21.70;99.90
4081;DHT22;2055;50.074;8.436;2023-07-31T12:28:48;21.80;99.90
4081;DHT22;2055;50.074;8.436;2023-07-31T12:31:20;21.90;99.90
4081;DHT22;2055;50.074;8.436;2023-07-31T12:33:47;21.90;99.90
4081;DHT22;2055;50.074;8.436;2023-07-31T12:36:18;22.00;99.90
4081;DHT22;2055;50.074;8.436;2023-07-31T12:38:44;22.00;99.90
4081;DHT22;2055;50.074;8.436;2023-07-31T12:41:10;22.10;99.90
4081;DHT22;2055;50.074;8.436;2023-07-31T12:43:37;22.40;99.90
4081;DHT22;2055;50.074;8.436;2023-07-31T12:46:03;22.50;99.90
4081;DHT22;2055;50.074;8.436;2023-07-31T12:48:29;22.90;99.90
4081;DHT22;2055;50.074;8.436;2023-07-31T12:50:54;23.40;99.90
4081;DHT22;2055;50.074;8.436;2023-07-31T12:53:20;24.00;99.90
4081;DHT22;2055;50.074;8.436;2023-07-31T12:55:46;24.40;99.90
4081;DHT22;2055;50.074;8.436;2023-07-31T12:58:11;24.60;99.90
4081;DHT22;2055;50.074;8.436;2023-07-31T13:00:37;24.70;99.90
4081;DHT22;2055;50.074;8.436;2023-07-31T13:03:03;24.90;99.90
4081;DHT22;2055;50.074;8.436;2023-07-31T13:05:28;24.20;99.90
4081;DHT22;2055;50.074;8.436;2023-07-31T13:07:54;24.10;99.90
4081;DHT22;2055;50.074;8.436;2023-07-31T13:10:20;24.40;99.90
4081;DHT22;2055;50.074;8.436;2023-07-31T13:12:45;24.50;99.90
4081;DHT22;2055;50.074;8.436;2023-07-31T13:15:12;24.20;99.90
4081;DHT22;2055;50.074;8.436;2023-07-31T13:17:38;24.20;99.90
4081;DHT22;2055;50.074;8.436;2023-07-31T13:20:04;24.70;99.90
4081;DHT22;2055;50.074;8.436;2023-07-31T13:22:30;25.10;99.90
4081;DHT22;2055;50.074;8.436;2023-07-31T13:24:56;25.10;99.90
4081;DHT22;2055;50.074;8.436;2023-07-31T13:27:21;25.20;99.90
4081;DHT22;2055;50.074;8.436;2023-07-31T13:29:53;25.10;99.90
4081;DHT22;2055;50.074;8.436;2023-07-31T13:32:22;24.40;99.90
4081;DHT22;2055;50.074;8.436;2023-07-31T13:34:48;24.00;99.90
4081;DHT22;2055;50.074;8.436;2023-07-31T13:37:14;23.70;99.90
4081;DHT22;2055;50.074;8.436;2023-07-31T13:39:40;23.70;99.90
4081;DHT22;2055;50.074;8.436;2023-07-31T13:42:07;23.50;99.90
4081;DHT22;2055;50.074;8.436;2023-07-31T13:44:36;22.90;99.90
4081;DHT22;2055;50.074;8.436;2023-07-31T13:47:02;22.70;99.90
4081;DHT22;2055;50.074;8.436;2023-07-31T13:49:29;22.70;99.90
4081;DHT22;2055;50.074;8.436;2023-07-31T13:51:54;22.50;99.90
4081;DHT22;2055;50.074;8.436;2023-07-31T13:54:20;22.30;99.90
4081;DHT22;2055;50.074;8.436;2023-07-31T13:56:45;22.20;99.90
4081;DHT22;2055;50.074;8.436;2023-07-31T13:59:11;22.30;99.90
4081;DHT22;2055;50.074;8.436;2023-07-31T14:01:37;22.10;99.90
4081;DHT22;2055;50.074;8.436;2023-07-31T14:04:03;21.90;99.90
4081;DHT22;2055;50.074;8.436;2023-07-31T14:06:29;21.80;99.90
4081;DHT22;2055;50.074;8.436;2023-07-31T14:08:54;21.90;99.90
4081;DHT22;2055;50.074;8.436;2023-07-31T14:11:21;22.00;99.90
4081;DHT22;2055;50.074;8.436;2023-07-31T14:13:47;21.80;99.90
4081;DHT22;2055;50.074;8.436;2023-07-31T14:16:12;21.70;99.90
4081;DHT22;2055;50.074;8.436;2023-07-31T14:18:38;21.70;99.90
4081;DHT22;2055;50.074;8.436;2023-07-31T14:21:03;21.70;99.90
4081;DHT22;2055;50.074;8.436;2023-07-31T14:23:29;21.70;99.90
4081;DHT22;2055;50.074;8.436;2023-07-31T14:25:54;21.60;99.90
4081;DHT22;2055;50.074;8.436;2023-07-31T14:28:20;21.60;99.90
4081;DHT22;2055;50.074;8.436;2023-07-31T14:30:46;21.80;99.90
4081;DHT22;2055;50.074;8.436;2023-07-31T14:33:11;21.90;99.90
4081;DHT22;2055;50.074;8.436;2023-07-31T14:35:37;21.80;99.90
4081;DHT22;2055;50.074;8.436;2023-07-31T14:38:02;21.80;99.90
4081;DHT22;2055;50.074;8.436;2023-07-31T14:40:28;21.80;99.90
4081;DHT22;2055;50.074;8.436;2023-07-31T14:42:53;21.90;99.90
4081;DHT22;2055;50.074;8.436;2023-07-31T14:45:19;22.00;99.90
4081;DHT22;2055;50.074;8.436;2023-07-31T14:47:44;22.10;99.90
4081;DHT22;2055;50.074;8.436;2023-07-31T14:50:10;22.00;99.90
4081;DHT22;2055;50.074;8.436;2023-07-31T14:52:36;22.10;99.90
4081;DHT22;2055;50.074;8.436;2023-07-31T14:55:02;22.00;99.90
4081;DHT22;2055;50.074;8.436;2023-07-31T14:57:27;21.80;99.90
4081;DHT22;2055;50.074;8.436;2023-07-31T14:59:53;21.60;99.90
4081;DHT22;2055;50.074;8.436;2023-07-31T15:02:18;21.50;99.90
4081;DHT22;2055;50.074;8.436;2023-07-31T15:04:44;21.40;99.90
4081;DHT22;2055;50.074;8.436;2023-07-31T15:07:09;21.30;99.90
4081;DHT22;2055;50.074;8.436;2023-07-31T15:09:35;21.30;99.90
4081;DHT22;2055;50.074;8.436;2023-07-31T15:12:01;21.30;99.90
4081;DHT22;2055;50.074;8.436;2023-07-31T15:14:26;21.20;99.90
4081;DHT22;2055;50.074;8.436;2023-07-31T15:16:56;21.20;99.90
4081;DHT22;2055;50.074;8.436;2023-07-31T15:19:22;21.20;99.90
4081;DHT22;2055;50.074;8.436;2023-07-31T15:21:48;21.10;99.90
4081;DHT22;2055;50.074;8.436;2023-07-31T15:24:14;21.00;99.90
4081;DHT22;2055;50.074;8.436;2023-07-31T15:26:39;20.90;99.90
4081;DHT22;2055;50.074;8.436;2023-07-31T15:29:07;20.90;99.90
4081;DHT22;2055;50.074;8.436;2023-07-31T15:31:45;20.80;99.90
4081;DHT22;2055;50.074;8.436;2023-07-31T15:34:12;21.10;99.90
4081;DHT22;2055;50.074;8.436;2023-07-31T15:36:37;20.70;99.90
4081;DHT22;2055;50.074;8.436;2023-07-31T15:39:03;20.70;99.90
4081;DHT22;2055;50.074;8.436;2023-07-31T15:41:29;20.70;99.90
4081;DHT22;2055;50.074;8.436;2023-07-31T15:43:55;20.70;99.90
4081;DHT22;2055;50.074;8.436;2023-07-31T15:46:20;20.60;99.90
4081;DHT22;2055;50.074;8.436;2023-07-31T15:48:46;20.60;99.90
4081;DHT22;2055;50.074;8.436;2023-07-31T15:51:11;20.60;99.90
4081;DHT22;2055;50.074;8.436;2023-07-31T15:53:37;20.50;99.90
4081;DHT22;2055;50.074;8.436;2023-07-31T15:56:03;20.40;99.90
4081;DHT22;2055;50.074;8.436;2023-07-31T15:58:29;20.40;99.90
4081;DHT22;2055;50.074;8.436;2023-07-31T16:00:54;20.40;99.90
4081;DHT22;2055;50.074;8.436;2023-07-31T16:03:20;20.50;99.90
4081;DHT22;2055;50.074;8.436;2023-07-31T16:05:47;20.50;99.90
4081;DHT22;2055;50.074;8.436;2023-07-31T16:08:13;20.50;99.90
4081;DHT22;2055;50.074;8.436;2023-07-31T16:10:39;20.50;99.90
4081;DHT22;2055;50.074;8.436;2023-07-31T16:13:04;20.60;99.90
4081;DHT22;2055;50.074;8.436;2023-07-31T16:15:30;20.90;99.90
4081;DHT22;2055;50.074;8.436;2023-07-31T16:17:55;20.60;99.90